createdAt,value
2018-09-19T00:00:26.596Z,12.50
2018-09-19T00:02:55.023Z,13.47
2018-09-19T00:05:24.246Z,18.97
2018-09-19T00:07:53.538Z,11.13
2018-09-19T00:10:23.713Z,15.13
2018-09-19T00:12:53.167Z,12.20
2018-09-19T00:15:22.162Z,20.90
2018-09-19T00:17:51.219Z,23.63
2018-09-19T00:20:20.981Z,21.00
2018-09-19T00:22:49.696Z,15.33
2018-09-19T00:25:19.044Z,19.50
2018-09-19T00:27:48.498Z,13.77
2018-09-19T00:30:17.234Z,16.47
2018-09-19T00:32:46.163Z,13.97
2018-09-19T00:35:17.019Z,19.43
2018-09-19T00:37:46.104Z,17.33
2018-09-19T00:40:15.645Z,21.43
2018-09-19T00:42:44.446Z,15.03
2018-09-19T00:45:14.157Z,21.20
2018-09-19T00:47:43.878Z,14.83
2018-09-19T00:50:12.329Z,14.83
2018-09-19T00:52:41.716Z,15.60
2018-09-19T00:55:10.895Z,21.20
2018-09-19T00:57:39.699Z,17.37
2018-09-19T01:00:09.404Z,18.50
2018-09-19T01:02:38.535Z,27.27
2018-09-19T01:05:07.985Z,17.87
2018-09-19T01:07:37.729Z,18.53
2018-09-19T01:10:06.916Z,18.07
2018-09-19T01:12:35.629Z,16.47
2018-09-19T01:15:04.656Z,17.70
2018-09-19T01:17:33.544Z,15.97
2018-09-19T01:20:03.188Z,12.33
2018-09-19T01:22:32.736Z,12.97
2018-09-19T01:25:01.403Z,13.70
2018-09-19T01:27:30.828Z,19.40
2018-09-19T01:29:59.940Z,23.10
2018-09-19T01:32:28.487Z,16.30
2018-09-19T01:34:57.400Z,17.73
2018-09-19T01:37:26.879Z,20.60
2018-09-19T01:39:55.471Z,16.57
2018-09-19T01:42:24.586Z,22.93
2018-09-19T01:44:54.035Z,18.13
2018-09-19T01:47:23.289Z,26.50
2018-09-19T01:49:53.865Z,20.93
2018-09-19T01:52:22.970Z,19.23
2018-09-19T01:54:51.513Z,23.37
2018-09-19T01:57:20.769Z,14.20
2018-09-19T01:59:50.494Z,20.23
2018-09-19T02:02:19.420Z,21.80
2018-09-19T02:04:49.586Z,17.70
2018-09-19T02:07:19.091Z,20.43
2018-09-19T02:09:47.782Z,15.57
2018-09-19T02:12:17.334Z,19.07
2018-09-19T02:14:46.563Z,22.00
2018-09-19T02:17:15.165Z,15.07
2018-09-19T02:19:44.849Z,16.93
2018-09-19T02:22:13.952Z,19.17
2018-09-19T02:24:42.844Z,13.93
2018-09-19T02:27:11.907Z,17.10
2018-09-19T02:29:41.128Z,18.17
2018-09-19T02:32:09.776Z,17.17
2018-09-19T02:34:39.055Z,22.30
2018-09-19T02:37:08.572Z,19.10
2018-09-19T02:39:37.199Z,24.07
2018-09-19T02:42:07.185Z,20.97
2018-09-19T02:44:36.316Z,22.80
2018-09-19T02:47:04.897Z,17.77
2018-09-19T02:49:34.544Z,21.97
2018-09-19T02:52:03.934Z,22.10
2018-09-19T02:54:32.476Z,20.87
2018-09-19T02:57:01.533Z,21.37
2018-09-19T02:59:30.789Z,22.17
2018-09-19T03:01:59.367Z,21.10
2018-09-19T03:04:28.600Z,21.33
2018-09-19T03:06:58.348Z,25.60
2018-09-19T03:09:26.927Z,22.83
2018-09-19T03:11:56.155Z,23.30
2018-09-19T03:14:25.328Z,23.83
2018-09-19T03:16:54.544Z,18.00
2018-09-19T03:19:24.892Z,21.13
2018-09-19T03:21:54.351Z,20.70
2018-09-19T03:24:22.867Z,23.30
2018-09-19T03:26:51.976Z,16.87
2018-09-19T03:29:21.289Z,25.10
2018-09-19T03:31:50.025Z,21.57
2018-09-19T03:34:19.132Z,19.07
2018-09-19T03:36:48.232Z,16.87
2018-09-19T03:39:16.738Z,22.00
2018-09-19T03:41:45.737Z,21.10
2018-09-19T03:44:14.632Z,19.03
2018-09-19T03:46:43.728Z,24.23
2018-09-19T03:49:12.575Z,16.93
2018-09-19T03:51:41.774Z,16.83
2018-09-19T03:54:11.400Z,24.10
2018-09-19T03:56:40.367Z,24.07
2018-09-19T03:59:09.819Z,21.50
2018-09-19T04:01:38.366Z,19.73
2018-09-19T04:04:06.916Z,27.33
2018-09-19T04:06:36.231Z,20.47
2018-09-19T04:09:08.761Z,27.43
2018-09-19T04:11:38.044Z,17.53
2018-09-19T04:14:07.679Z,20.43
2018-09-19T04:16:36.702Z,23.90
2018-09-19T04:19:06.368Z,23.30
2018-09-19T04:21:35.358Z,19.63
2018-09-19T04:24:04.771Z,23.83
2018-09-19T04:26:33.873Z,24.63
2018-09-19T04:29:02.594Z,34.47
2018-09-19T04:31:31.625Z,21.37
2018-09-19T04:34:00.911Z,23.57
2018-09-19T04:36:29.559Z,17.40
2018-09-19T04:38:59.227Z,22.87
2018-09-19T04:41:28.451Z,21.63
2018-09-19T04:43:57.052Z,25.63
2018-09-19T04:46:26.389Z,22.13
2018-09-19T04:48:55.581Z,29.70
2018-09-19T04:51:24.288Z,22.27
2018-09-19T04:53:52.846Z,35.97
2018-09-19T04:56:23.347Z,28.47
2018-09-19T04:58:51.932Z,22.27
2018-09-19T05:01:21.363Z,19.13
2018-09-19T05:03:50.723Z,20.30
2018-09-19T05:06:19.412Z,42.27
2018-09-19T05:08:47.954Z,39.37
2018-09-19T05:11:17.400Z,31.80
2018-09-19T05:13:46.692Z,22.10
2018-09-19T05:16:15.330Z,28.40
2018-09-19T05:18:46.043Z,26.77
2018-09-19T05:21:14.964Z,25.80
2018-09-19T05:23:43.916Z,35.43
2018-09-19T05:26:13.368Z,24.27
2018-09-19T05:28:42.416Z,29.90
2018-09-19T05:31:11.075Z,27.20
2018-09-19T05:33:40.222Z,31.80
2018-09-19T05:36:09.406Z,24.47
2018-09-19T05:38:38.173Z,28.70
2018-09-19T05:41:07.519Z,30.43
2018-09-19T05:43:36.672Z,29.07
2018-09-19T05:46:05.859Z,35.37
2018-09-19T05:48:34.965Z,31.27
2018-09-19T05:51:04.728Z,30.03
2018-09-19T05:53:33.319Z,22.17
2018-09-19T05:56:02.283Z,22.53
2018-09-19T05:58:32.223Z,32.20
2018-09-19T06:01:00.809Z,26.53
2018-09-19T06:03:30.345Z,28.43
2018-09-19T06:05:59.215Z,29.83
2018-09-19T06:08:27.717Z,30.70
2018-09-19T06:10:56.885Z,30.13
2018-09-19T06:13:26.046Z,30.70
2018-09-19T06:15:54.649Z,25.80
2018-09-19T06:18:23.144Z,30.33
2018-09-19T06:20:52.802Z,28.93
2018-09-19T06:23:21.811Z,31.83
2018-09-19T06:25:50.894Z,26.47
2018-09-19T06:28:20.584Z,35.00
2018-09-19T06:30:49.364Z,30.40
2018-09-19T06:33:18.752Z,30.93
2018-09-19T06:35:47.739Z,32.83
2018-09-19T06:38:16.879Z,32.97
2018-09-19T06:40:45.651Z,27.20
2018-09-19T06:43:14.760Z,37.77
2018-09-19T06:45:44.186Z,33.70
2018-09-19T06:48:13.257Z,24.03
2018-09-19T06:50:42.217Z,29.30
2018-09-19T06:53:10.936Z,34.00
2018-09-19T06:55:40.616Z,28.83
2018-09-19T06:58:09.930Z,37.27
2018-09-19T07:00:39.143Z,27.50
2018-09-19T07:03:08.004Z,25.13
2018-09-19T07:05:37.395Z,23.50
2018-09-19T07:08:06.330Z,27.07
2018-09-19T07:10:35.564Z,24.03
2018-09-19T07:13:04.683Z,23.07
2018-09-19T07:15:33.956Z,26.13
2018-09-19T07:18:03.142Z,29.73
2018-09-19T07:20:32.375Z,27.77
2018-09-19T07:23:01.656Z,22.47
2018-09-19T07:25:30.263Z,25.83
2018-09-19T07:27:59.694Z,22.67
2018-09-19T07:30:29.138Z,20.67
2018-09-19T07:32:58.125Z,24.17
2018-09-19T07:35:27.354Z,29.67
2018-09-19T07:37:56.881Z,23.57
2018-09-19T07:40:26.281Z,25.70
2018-09-19T07:42:55.455Z,28.03
2018-09-19T07:45:24.149Z,22.10
2018-09-19T07:47:53.136Z,22.20
2018-09-19T07:50:22.321Z,25.90
2018-09-19T07:52:52.170Z,22.70
2018-09-19T07:55:21.427Z,22.87
2018-09-19T07:57:50.465Z,33.07
2018-09-19T08:00:19.122Z,27.17
2018-09-19T08:02:48.190Z,30.80
2018-09-19T08:05:17.508Z,27.67
2018-09-19T08:07:46.171Z,26.77
2018-09-19T08:10:15.996Z,28.13
2018-09-19T08:12:45.379Z,21.43
2018-09-19T08:15:13.924Z,19.07
2018-09-19T08:17:42.669Z,26.67
2018-09-19T08:20:11.878Z,25.87
2018-09-19T08:22:40.615Z,26.60
2018-09-19T08:25:09.728Z,23.67
2018-09-19T08:27:39.416Z,23.87
2018-09-19T08:30:08.024Z,27.17
2018-09-19T08:32:38.030Z,23.80
2018-09-19T08:35:07.708Z,29.87
2018-09-19T08:37:36.290Z,29.73
2018-09-19T08:40:07.470Z,21.90
2018-09-19T08:42:36.012Z,22.80
2018-09-19T08:45:04.703Z,22.87
2018-09-19T08:47:33.764Z,24.30
2018-09-19T08:50:04.440Z,32.07
2018-09-19T08:52:34.049Z,27.87
2018-09-19T08:55:04.925Z,27.80
2018-09-19T08:57:34.203Z,25.23
2018-09-19T09:00:03.624Z,24.43
2018-09-19T09:02:32.170Z,23.63
2018-09-19T09:05:01.883Z,19.13
2018-09-19T09:07:30.980Z,19.67
2018-09-19T09:09:59.523Z,21.40
2018-09-19T09:12:28.879Z,16.57
2018-09-19T09:14:57.845Z,17.10
2018-09-19T09:17:26.592Z,28.37
2018-09-19T09:19:56.316Z,18.87
2018-09-19T09:22:25.778Z,25.20
2018-09-19T09:24:54.340Z,18.17
2018-09-19T09:27:23.410Z,26.20
2018-09-19T09:29:52.802Z,16.37
2018-09-19T09:32:22.123Z,14.07
2018-09-19T09:34:51.294Z,13.87
2018-09-19T09:37:20.428Z,18.97
2018-09-19T09:39:49.466Z,22.97
2018-09-19T09:42:18.041Z,19.70
2018-09-19T09:44:46.988Z,18.87
2018-09-19T09:47:16.422Z,14.83
2018-09-19T09:49:45.032Z,15.63
2018-09-19T09:52:13.859Z,14.50
2018-09-19T09:54:42.898Z,21.30
2018-09-19T09:57:12.135Z,18.17
2018-09-19T09:59:41.224Z,17.60
2018-09-19T10:02:10.536Z,22.03
2018-09-19T10:04:39.581Z,18.73
2018-09-19T10:07:08.434Z,19.97
2018-09-19T10:09:37.816Z,25.83
2018-09-19T10:12:07.205Z,20.10
2018-09-19T10:14:36.309Z,17.77
2018-09-19T10:17:06.298Z,23.47
2018-09-19T10:19:35.138Z,18.37
2018-09-19T10:22:04.549Z,20.23
2018-09-19T10:24:33.965Z,18.67
2018-09-19T10:27:03.389Z,17.93
2018-09-19T10:29:32.296Z,15.77
2018-09-19T10:32:01.163Z,24.50
2018-09-19T10:34:30.383Z,19.80
2018-09-19T10:36:58.951Z,19.60
2018-09-19T10:39:28.398Z,14.67
2018-09-19T10:41:57.641Z,19.20
2018-09-19T10:44:26.163Z,18.13
2018-09-19T10:46:55.674Z,16.23
2018-09-19T10:49:25.036Z,20.43
2018-09-19T10:51:53.630Z,19.60
2018-09-19T10:54:23.144Z,20.40
2018-09-19T10:56:52.483Z,14.73
2018-09-19T10:59:21.132Z,16.63
2018-09-19T11:01:50.144Z,17.30
2018-09-19T11:04:20.734Z,13.57
2018-09-19T11:06:49.426Z,13.43
2018-09-19T11:09:18.886Z,15.90
2018-09-19T11:11:48.142Z,14.80
2018-09-19T11:14:17.808Z,17.00
2018-09-19T11:16:46.809Z,14.63
2018-09-19T11:19:16.190Z,19.40
2018-09-19T11:21:45.457Z,16.57
2018-09-19T11:24:15.053Z,14.10
2018-09-19T11:26:44.511Z,14.10
2018-09-19T11:29:13.238Z,12.03
2018-09-19T11:31:42.510Z,13.27
2018-09-19T11:34:11.784Z,19.30
2018-09-19T11:36:40.265Z,15.50
2018-09-19T11:39:11.712Z,14.83
2018-09-19T11:41:41.205Z,19.90
2018-09-19T11:44:11.123Z,18.80
2018-09-19T11:46:40.296Z,14.97
2018-09-19T11:49:09.033Z,15.40
2018-09-19T11:51:38.057Z,12.73
2018-09-19T11:54:08.137Z,16.23
2018-09-19T11:56:37.696Z,15.13
2018-09-19T11:59:06.771Z,12.13
2018-09-19T12:01:36.400Z,14.63
2018-09-19T12:04:06.336Z,15.43
2018-09-19T12:06:35.438Z,13.83
2018-09-19T12:09:06.217Z,16.57
2018-09-19T12:11:35.798Z,17.37
2018-09-19T12:14:05.857Z,18.33
2018-09-19T12:16:34.887Z,18.97
2018-09-19T12:19:04.554Z,14.63
2018-09-19T12:21:33.376Z,13.73
2018-09-19T12:24:01.997Z,13.70
2018-09-19T12:26:31.103Z,15.23
2018-09-19T12:29:01.247Z,15.50
2018-09-19T12:31:29.823Z,16.53
2018-09-19T12:33:59.030Z,10.60
2018-09-19T12:36:28.598Z,9.97
2018-09-19T12:38:57.554Z,15.20
2018-09-19T12:41:26.865Z,17.10
2018-09-19T12:43:56.398Z,21.50
2018-09-19T12:46:24.922Z,7.17
2018-09-19T12:48:54.684Z,13.97
2018-09-19T12:51:23.793Z,15.27
2018-09-19T12:53:52.296Z,14.00
2018-09-19T12:56:21.283Z,13.33
2018-09-19T12:58:51.011Z,17.53
2018-09-19T13:01:19.932Z,14.03
2018-09-19T13:03:48.956Z,16.73
2018-09-19T13:06:18.176Z,14.90
2018-09-19T13:08:47.661Z,12.57
2018-09-19T13:11:16.280Z,11.10
2018-09-19T13:13:45.740Z,11.90
2018-09-19T13:16:18.545Z,13.23
2018-09-19T13:18:48.014Z,13.03
2018-09-19T13:21:16.944Z,12.40
2018-09-19T13:23:47.934Z,16.03
2018-09-19T13:26:16.750Z,13.13
2018-09-19T13:28:45.876Z,9.97
2018-09-19T13:31:16.150Z,9.83
2018-09-19T13:33:45.122Z,14.33
2018-09-19T13:36:14.009Z,18.00
2018-09-19T13:38:43.159Z,7.27
2018-09-19T13:41:12.406Z,17.47
2018-09-19T13:43:41.079Z,12.33
2018-09-19T13:46:10.821Z,12.50
2018-09-19T13:48:43.880Z,14.23
2018-09-19T13:51:17.298Z,10.20
2018-09-19T13:53:46.791Z,11.23
2018-09-19T13:56:15.823Z,15.53
2018-09-19T13:58:45.442Z,18.77
2018-09-19T14:01:15.927Z,8.70
2018-09-19T14:03:46.377Z,13.50
2018-09-19T14:06:15.756Z,16.33
2018-09-19T14:08:45.072Z,11.00
2018-09-19T14:11:14.988Z,13.10
2018-09-19T14:13:43.821Z,12.57
2018-09-19T14:16:12.941Z,13.53
2018-09-19T14:18:43.503Z,11.83
2018-09-19T14:21:12.039Z,14.20
2018-09-19T14:23:42.521Z,16.50
2018-09-19T14:26:12.170Z,12.73
2018-09-19T14:28:40.793Z,14.30
2018-09-19T14:31:10.376Z,16.30
2018-09-19T14:33:40.337Z,15.37
2018-09-19T14:36:08.895Z,14.23
2018-09-19T14:38:38.365Z,12.27
2018-09-19T14:41:07.794Z,10.83
2018-09-19T14:43:36.412Z,10.90
2018-09-19T14:46:06.522Z,13.87
2018-09-19T14:48:37.881Z,13.57
2018-09-19T14:51:07.197Z,19.33
2018-09-19T14:53:36.254Z,9.73
2018-09-19T14:56:07.324Z,16.03
2018-09-19T14:58:36.871Z,13.93
2018-09-19T15:01:06.539Z,16.50
2018-09-19T15:03:36.028Z,16.13
2018-09-19T15:06:05.178Z,11.40
2018-09-19T15:08:34.236Z,10.50
2018-09-19T15:11:02.988Z,9.67
2018-09-19T15:13:33.020Z,15.53
2018-09-19T15:16:02.158Z,14.23
2018-09-19T15:20:59.000Z,12.23
2018-09-19T15:23:29.005Z,13.63
2018-09-19T15:26:02.860Z,14.27
2018-09-19T15:28:34.187Z,20.10
2018-09-19T15:33:30.157Z,12.90
2018-09-19T15:36:00.290Z,15.63
2018-09-19T15:38:29.500Z,13.97
2018-09-19T15:40:58.511Z,15.80
2018-09-19T15:43:27.081Z,13.90
2018-09-19T15:45:56.924Z,14.80
2018-09-19T15:48:26.247Z,9.53
2018-09-19T15:50:54.878Z,11.03
2018-09-19T15:53:24.382Z,12.17
2018-09-19T15:55:53.416Z,11.17
2018-09-19T15:58:22.470Z,12.17
2018-09-19T16:00:51.172Z,18.17
2018-09-19T16:03:20.006Z,17.27
2018-09-19T16:05:49.378Z,18.97
2018-09-19T16:08:18.612Z,13.43
2018-09-19T16:10:47.983Z,10.60
2018-09-19T16:13:16.522Z,12.43
2018-09-19T16:15:46.238Z,11.27
2018-09-19T16:18:15.406Z,14.10
2018-09-19T16:20:44.848Z,17.27
2018-09-19T16:23:13.529Z,13.63
2018-09-19T16:25:42.172Z,13.20
2018-09-19T16:28:11.917Z,13.53
2018-09-19T16:30:41.288Z,15.30
2018-09-19T16:33:10.134Z,12.60
2018-09-19T16:35:38.709Z,11.57
2018-09-19T16:38:07.574Z,12.27
2018-09-19T16:40:39.633Z,14.27
2018-09-19T16:43:08.665Z,15.23
2018-09-19T16:45:37.322Z,16.23
2018-09-19T16:48:06.881Z,19.73
2018-09-19T16:50:36.292Z,11.13
2018-09-19T16:53:05.839Z,12.33
2018-09-19T16:55:34.449Z,12.33
2018-09-19T16:58:03.806Z,13.20
2018-09-19T17:00:32.878Z,10.70
2018-09-19T17:03:02.211Z,13.20
2018-09-19T17:05:32.210Z,13.93
2018-09-19T17:08:02.218Z,13.97
2018-09-19T17:10:31.833Z,11.90
2018-09-19T17:13:00.998Z,13.20
2018-09-19T17:15:29.693Z,13.43
2018-09-19T17:17:59.802Z,14.23
2018-09-19T17:20:28.893Z,17.60
2018-09-19T17:22:58.333Z,11.23
2018-09-19T17:25:27.471Z,14.83
2018-09-19T17:27:56.040Z,14.50
2018-09-19T17:30:25.458Z,15.00
2018-09-19T17:32:54.638Z,11.57
2018-09-19T17:35:24.883Z,13.17
2018-09-19T17:37:54.499Z,12.20
2018-09-19T17:40:24.170Z,8.70
2018-09-19T17:42:53.754Z,13.87
2018-09-19T17:45:22.412Z,11.43
2018-09-19T17:47:51.113Z,11.70
2018-09-19T17:50:20.409Z,11.87
2018-09-19T17:52:49.741Z,9.77
2018-09-19T17:55:19.129Z,12.43
2018-09-19T17:57:48.342Z,11.70
2018-09-19T18:00:17.149Z,13.13
2018-09-19T18:02:45.891Z,10.70
2018-09-19T18:05:14.939Z,12.93
2018-09-19T18:07:44.310Z,11.33
2018-09-19T18:10:13.480Z,10.70
2018-09-19T18:12:42.646Z,8.90
2018-09-19T18:15:11.412Z,9.63
2018-09-19T18:17:40.403Z,11.47
2018-09-19T18:20:09.724Z,11.23
2018-09-19T18:22:38.842Z,13.33
2018-09-19T18:25:08.529Z,12.43
2018-09-19T18:27:37.986Z,12.50
2018-09-19T18:30:07.670Z,8.77
2018-09-19T18:32:36.994Z,10.23
2018-09-19T18:35:06.590Z,12.77
2018-09-19T18:37:35.261Z,11.37
2018-09-19T18:40:04.506Z,7.83
2018-09-19T18:42:34.063Z,17.47
2018-09-19T18:45:03.570Z,10.30
2018-09-19T18:47:33.128Z,19.07
2018-09-19T18:50:02.564Z,17.90
2018-09-19T18:52:31.193Z,15.33
2018-09-19T18:54:59.997Z,14.83
2018-09-19T18:57:29.125Z,15.03
2018-09-19T18:59:58.612Z,10.13
2018-09-19T19:02:27.941Z,13.40
2018-09-19T19:04:57.597Z,9.20
2018-09-19T19:07:26.484Z,16.13
2018-09-19T19:09:55.148Z,12.47
2018-09-19T19:12:24.162Z,18.13
2018-09-19T19:14:53.627Z,13.93
2018-09-19T19:17:22.885Z,17.60
2018-09-19T19:19:52.260Z,14.90
2018-09-19T19:22:21.034Z,15.77
2018-09-19T19:24:50.390Z,17.60
2018-09-19T19:27:19.147Z,17.10
2018-09-19T19:29:47.729Z,12.57
2018-09-19T19:32:21.229Z,16.00
2018-09-19T19:34:50.775Z,17.47
2018-09-19T19:37:23.102Z,15.57
2018-09-19T19:39:53.789Z,15.73
2018-09-19T19:42:23.316Z,18.77
2018-09-19T19:44:52.895Z,15.57
2018-09-19T19:47:21.780Z,10.50
2018-09-19T19:49:51.044Z,13.23
2018-09-19T19:52:20.105Z,10.77
2018-09-19T19:54:49.604Z,11.87
2018-09-19T19:57:19.112Z,14.23
2018-09-19T19:59:47.992Z,16.53
2018-09-19T20:02:17.425Z,16.57
2018-09-19T20:04:46.822Z,14.87
2018-09-19T20:07:16.216Z,13.27
2018-09-19T20:09:45.133Z,12.40
2018-09-19T20:12:13.786Z,11.80
2018-09-19T20:14:42.400Z,15.00
2018-09-19T20:17:11.199Z,14.70
2018-09-19T20:19:40.274Z,13.60
2018-09-19T20:22:11.031Z,16.20
2018-09-19T20:24:40.767Z,17.27
2018-09-19T20:27:09.803Z,15.07
2018-09-19T20:29:38.393Z,12.27
2018-09-19T20:32:07.835Z,13.43
2018-09-19T20:34:37.172Z,14.07
2018-09-19T20:37:07.097Z,12.43
2018-09-19T20:39:35.815Z,8.87
2018-09-19T20:42:04.580Z,11.63
2018-09-19T20:44:34.070Z,17.03
2018-09-19T20:47:04.185Z,13.13
2018-09-19T20:49:33.468Z,16.00
2018-09-19T20:52:03.284Z,10.80
2018-09-19T20:54:32.613Z,15.43
2018-09-19T20:57:01.988Z,18.20
2018-09-19T20:59:31.556Z,13.60
2018-09-19T21:02:00.267Z,12.17
2018-09-19T21:04:29.986Z,14.17
2018-09-19T21:06:59.026Z,11.97
2018-09-19T21:09:29.105Z,10.03
2018-09-19T21:11:58.677Z,13.03
2018-09-19T21:14:28.395Z,12.97
2018-09-19T21:16:57.631Z,12.17
2018-09-19T21:19:26.889Z,15.20
2018-09-19T21:21:56.500Z,13.80
2018-09-19T21:24:25.028Z,16.57
2018-09-19T21:26:53.757Z,16.53
2018-09-19T21:29:23.446Z,13.60
2018-09-19T21:31:52.923Z,15.23
2018-09-19T21:34:22.732Z,12.10
2018-09-19T21:36:52.110Z,13.97
2018-09-19T21:39:22.076Z,18.60
2018-09-19T21:41:51.530Z,11.13
2018-09-19T21:44:21.321Z,16.60
2018-09-19T21:46:50.721Z,9.40
2018-09-19T21:49:19.363Z,14.80
2018-09-19T21:51:48.285Z,11.67
2018-09-19T21:54:18.332Z,14.97
2018-09-19T21:56:47.767Z,14.07
2018-09-19T21:59:17.537Z,17.80
2018-09-19T22:01:46.168Z,12.87
2018-09-19T22:04:14.922Z,15.30
2018-09-19T22:06:44.682Z,16.87
2018-09-19T22:09:14.016Z,13.20
2018-09-19T22:11:43.461Z,17.20
2018-09-19T22:14:12.207Z,15.83
2018-09-19T22:16:40.877Z,13.10
2018-09-19T22:19:10.524Z,14.40
2018-09-19T22:21:39.907Z,13.63
2018-09-19T22:24:10.025Z,11.83
2018-09-19T22:26:38.786Z,14.90
2018-09-19T22:29:08.379Z,13.33
2018-09-19T22:31:37.538Z,16.90
2018-09-19T22:34:06.665Z,14.60
2018-09-19T22:36:36.216Z,11.00
2018-09-19T22:39:07.320Z,10.67
2018-09-19T22:41:36.590Z,17.80
2018-09-19T22:44:06.942Z,16.00
2018-09-19T22:46:35.766Z,17.97
2018-09-19T22:49:04.367Z,12.77
2018-09-19T22:51:33.061Z,16.53
2018-09-19T22:54:01.729Z,18.60
2018-09-19T22:56:30.783Z,16.83
2018-09-19T22:59:01.471Z,14.40
2018-09-19T23:01:33.565Z,16.53
2018-09-19T23:04:03.273Z,15.13
2018-09-19T23:06:32.539Z,19.77
2018-09-19T23:09:02.221Z,13.73
2018-09-19T23:11:31.535Z,14.60
2018-09-19T23:14:00.515Z,12.40
2018-09-19T23:16:29.911Z,11.57
2018-09-19T23:18:59.067Z,12.53
2018-09-19T23:21:27.628Z,16.67
2018-09-19T23:23:56.516Z,15.97
2018-09-19T23:26:25.446Z,19.43
2018-09-19T23:28:54.794Z,14.17
2018-09-19T23:31:23.835Z,14.60
2018-09-19T23:33:53.266Z,16.90
2018-09-19T23:36:22.616Z,18.87
2018-09-19T23:38:51.342Z,15.40
2018-09-19T23:41:20.119Z,20.03
2018-09-19T23:43:49.643Z,18.63
2018-09-19T23:46:18.702Z,14.03
2018-09-19T23:48:47.953Z,13.53
2018-09-19T23:51:17.433Z,16.23
2018-09-19T23:53:46.511Z,17.63
2018-09-19T23:56:15.095Z,19.30
2018-09-19T23:58:44.435Z,19.27
